Time;durP1;ratioP1;P1;durP2;ratioP2;P2;SDS_P1;SDS_P2;PMS_P1;PMS_P2;Temp;Humidity;BMP_temperature;BMP_pressure;BME280_temperature;BME280_humidity;BME280_pressure;Samples;Min_cycle;Max_cycle;Signal;HPM_P1;HPM_P2
2022/01/18 00:01:32;;;;;;;20.60;5.03;;;;;;;-1.53;77.96;101552.30;2278173;78;32202;-61
2022/01/18 00:04:35;;;;;;;19.42;4.70;;;;;;;-1.53;77.95;101557.55;2242444;78;33057;-64
2022/01/18 00:07:37;;;;;;;25.85;7.55;;;;;;;-1.55;77.92;101557.95;2237844;78;29688;-63
2022/01/18 00:10:39;;;;;;;33.13;10.60;;;;;;;-1.57;77.94;101556.58;2237473;78;27640;-62
2022/01/18 00:13:46;;;;;;;29.30;9.33;;;;;;;-1.57;77.97;101555.71;2237006;79;29013;-61
2022/01/18 00:20:09;;;;;;;23.83;7.17;;;;;;;-1.59;78.03;101560.95;2240686;79;33398;-62
2022/01/18 00:23:10;;;;;;;29.67;8.48;;;;;;;-1.60;78.03;101561.80;2241306;79;29664;-60
2022/01/18 00:26:13;;;;;;;27.87;8.15;;;;;;;-1.60;78.04;101572.31;2240827;79;27667;-60
2022/01/18 00:29:17;;;;;;;33.63;7.17;;;;;;;-1.61;78.03;101573.16;2211385;79;28599;-59
2022/01/18 00:35:22;;;;;;;20.37;5.97;;;;;;;-1.63;78.03;101581.44;2115285;84;34565;-59
2022/01/18 00:38:33;;;;;;;23.42;5.92;;;;;;;-1.63;77.97;101592.36;2094218;84;29909;-61
2022/01/18 00:41:34;;;;;;;25.10;6.12;;;;;;;-1.65;78.01;101592.34;2080290;85;27735;-60
2022/01/18 00:44:36;;;;;;;23.75;6.22;;;;;;;-1.66;78.07;101596.26;2110712;84;28671;-61
2022/01/18 00:47:38;;;;;;;21.35;5.87;;;;;;;-1.67;78.05;101603.23;2114800;84;31600;-60
2022/01/18 00:50:40;;;;;;;21.60;5.45;;;;;;;-1.67;78.06;101601.92;2114333;84;32966;-61
2022/01/18 00:53:45;;;;;;;26.82;5.28;;;;;;;-1.67;78.10;101606.30;2115284;84;29382;-62
2022/01/18 00:56:50;;;;;;;18.20;6.00;;;;;;;-1.69;78.02;101608.88;2115477;84;27872;-60
2022/01/18 00:59:51;;;;;;;25.57;4.55;;;;;;;-1.69;78.04;101608.88;2115016;84;29967;-60
2022/01/18 01:02:53;;;;;;;24.12;6.97;;;;;;;-1.70;78.04;101604.47;2115322;84;31101;-62
2022/01/18 01:05:54;;;;;;;27.58;5.12;;;;;;;-1.71;78.04;101604.02;2115216;84;33332;-62
2022/01/18 01:08:56;;;;;;;19.85;5.22;;;;;;;-1.72;78.06;101610.12;2084601;84;30447;-62
2022/01/18 01:11:58;;;;;;;16.80;5.70;;;;;;;-1.74;78.03;101610.09;2115333;80;27746;-65
2022/01/18 01:15:10;;;;;;;20.08;5.20;;;;;;;-1.74;78.07;101616.66;2206909;79;29706;-61
2022/01/18 01:18:29;;;;;;;18.48;4.60;;;;;;;-1.75;78.07;101617.52;2237451;79;31825;-58
2022/01/18 01:44:19;;;;;;;28.00;6.45;;;;;;;-1.80;78.18;101628.33;2237832;78;27721;-63
2022/01/18 01:47:18;;;;;;;19.05;5.53;;;;;;;-1.81;78.17;101625.69;2233181;79;28675;-62
2022/01/18 01:50:22;;;;;;;32.63;6.58;;;;;;;-1.84;78.21;101633.95;2237674;78;31707;-64
2022/01/18 01:53:25;;;;;;;33.25;6.15;;;;;;;-1.85;78.21;101641.37;2265532;78;33035;-65
2022/01/18 01:56:30;;;;;;;30.23;5.92;;;;;;;-1.86;78.17;101636.09;2229781;78;29504;-62
2022/01/18 01:59:32;;;;;;;22.62;5.70;;;;;;;-1.88;78.23;101637.35;2265343;78;27698;-60
2022/01/18 02:02:33;;;;;;;24.40;6.15;;;;;;;-1.90;78.27;101631.17;2266007;78;29700;-61
2022/01/18 02:05:35;;;;;;;26.20;5.92;;;;;;;-1.90;78.29;101628.55;2221158;80;31680;-64
2022/01/18 02:08:40;;;;;;;24.10;6.72;;;;;;;-1.91;78.30;101625.90;2231665;78;34276;-63
2022/01/18 02:11:43;;;;;;;31.20;6.67;;;;;;;-1.92;78.35;101630.69;2201545;79;28978;-64
2022/01/18 02:14:52;;;;;;;28.77;7.55;;;;;;;-1.93;78.41;101639.41;2200934;79;27658;-62
2022/01/18 02:24:24;;;;;;;;;;;;;;;-1.94;78.54;101624.10;2113194;82;34052;-64
2022/01/18 02:27:28;;;;;;;21.15;6.35;;;;;;;-1.93;78.56;101631.13;2144000;83;29914;-61
2022/01/18 02:30:31;;;;;;;19.82;4.72;;;;;;;-1.94;78.60;101637.64;2106296;84;27800;-62
2022/01/18 02:33:33;;;;;;;33.10;5.97;;;;;;;-1.94;78.66;101646.42;2118591;84;29481;-61
2022/01/18 02:36:34;;;;;;;22.00;5.90;;;;;;;-1.94;78.61;101645.52;2128862;82;32277;-63
2022/01/18 02:39:36;;;;;;;26.93;6.17;;;;;;;-1.95;78.66;101648.99;2159994;81;33395;-60
2022/01/18 02:42:44;;;;;;;25.15;5.42;;;;;;;-1.95;78.66;101664.75;2139735;81;29587;-61
2022/01/18 02:45:42;;;;;;;34.60;5.97;;;;;;;-1.95;78.60;101667.37;2189141;81;27715;-60
2022/01/18 02:48:43;;;;;;;25.20;6.22;;;;;;;-1.96;78.58;101678.32;2187859;81;29875;-61
2022/01/18 02:51:45;;;;;;;21.57;5.58;;;;;;;-1.97;78.57;101675.63;2188374;81;32266;-64
2022/01/18 02:54:47;;;;;;;24.05;5.65;;;;;;;-2.00;78.61;101671.20;2178125;81;34329;-61
2022/01/18 02:57:56;;;;;;;32.60;7.33;;;;;;;-2.02;78.62;101667.25;2178291;81;29734;-61
2022/01/18 03:04:10;;;;;;;21.87;4.87;;;;;;;-2.04;78.69;101674.60;2218998;80;28647;-60
2022/01/18 03:07:13;;;;;;;23.67;4.75;;;;;;;-2.06;78.68;101679.83;2227036;78;31682;-62
2022/01/18 03:10:16;;;;;;;24.25;5.55;;;;;;;-2.07;78.66;101679.36;2242100;78;33772;-61
2022/01/18 03:13:19;;;;;;;20.30;5.37;;;;;;;-2.08;78.80;101675.41;2242184;78;30309;-60
2022/01/18 03:16:20;;;;;;;23.00;5.60;;;;;;;-2.10;78.83;101674.47;2240251;78;27616;-64
2022/01/18 03:19:22;;;;;;;29.05;5.72;;;;;;;-2.11;78.83;101680.57;2237649;79;29088;-61
2022/01/18 03:22:25;;;;;;;25.92;5.70;;;;;;;-2.12;78.87;101699.80;2237454;79;31116;-61
2022/01/18 03:28:35;;;;;;;18.35;5.42;;;;;;;-2.14;78.89;101709.83;2237493;79;29449;-61
2022/01/18 03:31:37;;;;;;;28.20;6.37;;;;;;;-2.15;79.02;101703.24;2237635;79;27589;-61
2022/01/18 03:35:02;;;;;;;30.57;5.30;;;;;;;-2.16;79.11;101705.41;2239810;77;28810;-60
2022/01/18 03:38:05;;;;;;;32.97;7.40;;;;;;;-2.15;79.19;101720.31;2150951;82;30907;-60
2022/01/18 03:41:08;;;;;;;25.75;6.28;;;;;;;-2.16;79.19;101722.03;2130623;82;34249;-60
2022/01/18 03:44:10;;;;;;;28.62;5.72;;;;;;;-2.17;79.16;101720.25;2112816;84;30687;-60
2022/01/18 03:47:14;;;;;;;30.12;7.17;;;;;;;-2.18;79.15;101716.28;2108099;84;27675;-59
2022/01/18 03:50:16;;;;;;;27.13;6.90;;;;;;;-2.19;79.17;101715.81;2124512;83;29878;-59
2022/01/18 03:53:20;;;;;;;28.85;6.67;;;;;;;-2.20;79.19;101721.48;2123991;83;31122;-60
2022/01/18 03:56:22;;;;;;;28.65;7.25;;;;;;;-2.21;79.24;101729.33;2152801;82;33183;-60
2022/01/18 03:59:23;;;;;;;32.15;7.85;;;;;;;-2.23;79.28;101730.58;2160853;82;29684;-60
2022/01/18 04:02:25;;;;;;;31.75;5.87;;;;;;;-2.23;79.25;101744.14;2161266;81;27837;-60
2022/01/18 04:05:27;;;;;;;32.50;5.72;;;;;;;-2.26;79.25;101737.09;2188269;81;28679;-61
2022/01/18 04:08:37;;;;;;;33.10;6.67;;;;;;;-2.25;79.36;101745.84;2155841;81;31047;-59
2022/01/18 04:11:39;;;;;;;25.32;6.25;;;;;;;-2.27;79.40;101743.19;2154883;81;32970;-60
2022/01/18 04:14:47;;;;;;;24.50;5.03;;;;;;;-2.28;79.40;101744.03;2143926;82;29691;-65
2022/01/18 04:18:09;;;;;;;28.57;5.90;;;;;;;-2.29;79.46;101738.31;2164537;81;27844;-60
2022/01/18 04:27:42;;;;;;;35.35;5.25;;;;;;;-2.31;79.48;101751.81;2181022;81;34265;-61
2022/01/18 04:30:40;;;;;;;35.20;6.33;;;;;;;-2.33;79.48;101757.44;2180603;81;29706;-61
2022/01/18 04:33:42;;;;;;;24.45;5.80;;;;;;;-2.34;79.49;101755.66;2181126;81;27638;-60
2022/01/18 04:36:47;;;;;;;32.10;5.92;;;;;;;-2.35;79.46;101765.28;2184210;81;28651;-63
2022/01/18 04:39:49;;;;;;;24.47;5.78;;;;;;;-2.36;79.44;101776.63;2180561;81;31432;-60
2022/01/18 04:49:17;;;;;;;25.70;5.37;;;;;;;-2.42;79.49;101795.26;2149839;82;27657;-59
2022/01/18 04:52:19;;;;;;;28.67;6.47;;;;;;;-2.44;79.50;101804.38;2149245;82;30761;-59
2022/01/18 04:55:21;;;;;;;39.88;6.03;;;;;;;-2.46;79.56;101801.72;2149907;82;32001;-58
2022/01/18 04:58:25;;;;;;;32.48;6.65;;;;;;;-2.46;79.63;101792.94;2154843;81;33395;-59
2022/01/18 05:01:27;;;;;;;32.63;5.97;;;;;;;-2.46;79.65;101799.50;2187310;81;30228;-63
2022/01/18 05:04:29;;;;;;;29.02;6.85;;;;;;;-2.48;79.64;101795.54;2186517;81;28234;-61
2022/01/18 05:07:33;;;;;;;34.40;6.45;;;;;;;-2.49;79.71;101794.20;2168392;81;28633;-63
2022/01/18 05:10:34;;;;;;;25.45;6.08;;;;;;;-2.50;79.71;101801.16;2190491;79;32928;-61
2022/01/18 05:14:01;;;;;;;34.03;6.80;;;;;;;-2.50;79.67;101806.41;2188047;81;34162;-59
2022/01/18 05:16:54;;;;;;;28.70;5.95;;;;;;;-2.51;79.67;101806.37;2188355;81;30542;-60
2022/01/18 05:20:23;;;;;;;30.77;6.55;;;;;;;-2.52;79.68;101805.47;2212698;79;27654;-63
2022/01/18 05:23:01;;;;;;;28.20;6.35;;;;;;;-2.54;79.75;101807.16;2209835;79;29041;-60
2022/01/18 05:26:03;;;;;;;29.63;5.72;;;;;;;-2.56;79.76;101800.97;2188806;81;30941;-60
2022/01/18 05:29:04;;;;;;;26.87;6.12;;;;;;;-2.55;79.79;101817.19;2188016;81;34124;-58
2022/01/18 05:32:08;;;;;;;43.65;8.20;;;;;;;-2.56;79.77;101831.14;2216667;79;29325;-64
2022/01/18 05:35:10;;;;;;;38.02;7.95;;;;;;;-2.57;79.73;101818.91;2226744;79;27656;-60
2022/01/18 05:38:11;;;;;;;30.10;8.70;;;;;;;-2.58;79.71;101821.06;2227234;79;29082;-59
2022/01/18 05:41:14;;;;;;;29.60;7.92;;;;;;;-2.60;79.69;101819.68;2200106;79;31878;-59
2022/01/18 05:44:18;;;;;;;29.23;7.60;;;;;;;-2.62;79.67;101812.63;2188945;81;32815;-64
2022/01/18 05:47:20;;;;;;;36.98;8.23;;;;;;;-2.64;79.65;101820.86;2188959;81;33020;-61
2022/01/18 05:50:22;;;;;;;36.15;8.85;;;;;;;-2.65;79.70;101830.89;2189034;81;27615;-59
2022/01/18 05:53:24;;;;;;;36.28;8.70;;;;;;;-2.68;79.73;101817.67;2188824;81;30254;-66
2022/01/18 05:56:25;;;;;;;33.85;7.95;;;;;;;-2.70;79.72;101819.36;2156898;82;32187;-62
2022/01/18 05:59:35;;;;;;;33.30;8.05;;;;;;;-2.73;79.73;101814.92;2157575;82;33342;-64
2022/01/18 06:08:58;;;;;;;30.45;7.28;;;;;;;-2.79;79.75;101816.95;2227268;79;29231;-60
2022/01/18 06:12:00;;;;;;;27.10;7.05;;;;;;;-2.80;79.81;101833.53;2211040;79;32135;-59
2022/01/18 06:15:03;;;;;;;39.73;7.28;;;;;;;-2.81;79.87;101834.37;2188662;81;33441;-59
2022/01/18 06:18:05;;;;;;;27.58;6.90;;;;;;;-2.81;79.92;101823.00;2157608;81;29948;-60
2022/01/18 06:21:07;;;;;;;33.38;6.12;;;;;;;-2.84;79.90;101825.09;2186290;81;27679;-59
2022/01/18 06:24:11;;;;;;;35.05;7.08;;;;;;;-2.84;79.92;101826.84;2185739;81;28658;-59
2022/01/18 06:27:13;;;;;;;37.47;6.27;;;;;;;-2.85;79.99;101828.99;2190000;81;31103;-59
2022/01/18 06:30:15;;;;;;;37.13;6.70;;;;;;;-2.85;80.07;101843.41;2227606;79;32799;-64
2022/01/18 06:33:17;;;;;;;31.52;6.37;;;;;;;-2.85;80.18;101848.22;2228242;79;29892;-59
2022/01/18 06:36:19;;;;;;;26.97;5.45;;;;;;;-2.85;80.24;101840.35;2223615;79;27784;-63
2022/01/18 06:39:21;;;;;;;37.35;7.50;;;;;;;-2.83;80.26;101851.78;2173529;81;29782;-59
2022/01/18 06:42:25;;;;;;;40.05;7.62;;;;;;;-2.79;80.46;101847.11;2151735;82;31448;-59
2022/01/18 06:45:27;;;;;;;35.90;8.48;;;;;;;-2.73;80.66;101852.96;2151828;82;33123;-60
2022/01/18 06:48:28;;;;;;;38.42;7.70;;;;;;;-2.65;80.81;101863.28;2121480;82;30520;-65
2022/01/18 06:51:31;;;;;;;33.08;7.40;;;;;;;-2.56;80.89;101857.82;2160691;81;28313;-59
2022/01/18 06:54:33;;;;;;;35.65;7.45;;;;;;;-2.46;81.05;101871.27;2160311;82;28625;-61
2022/01/18 06:57:35;;;;;;;34.92;9.58;;;;;;;-2.35;81.18;101875.52;2159740;81;32235;-60
2022/01/18 07:00:37;;;;;;;48.45;10.50;;;;;;;-2.21;81.24;101876.33;2135436;83;33799;-59
2022/01/18 07:03:39;;;;;;;43.78;10.00;;;;;;;-2.09;81.31;101873.17;2115551;84;30529;-60
2022/01/18 07:06:41;;;;;;;29.55;8.00;;;;;;;-1.96;81.37;101894.98;2116069;84;27715;-60
2022/01/18 07:09:44;;;;;;;43.70;10.55;;;;;;;-1.83;81.53;101901.47;2117647;82;28684;-60
2022/01/18 07:12:46;;;;;;;40.10;9.13;;;;;;;-1.70;81.51;101899.64;2115506;84;32344;-60
2022/01/18 07:15:48;;;;;;;34.55;9.85;;;;;;;-1.55;81.62;101908.77;2115527;84;34178;-60
2022/01/18 07:18:50;;;;;;;45.43;10.48;;;;;;;-1.41;81.55;101909.14;2115553;84;30517;-60
2022/01/18 07:21:52;;;;;;;44.27;9.85;;;;;;;-1.30;81.50;101911.61;2115619;84;27744;-60
2022/01/18 07:24:58;;;;;;;38.60;8.73;;;;;;;-1.16;81.48;101921.58;2115648;84;29011;-60
2022/01/18 07:27:58;;;;;;;40.52;9.83;;;;;;;-1.03;81.47;101927.60;2115735;84;30689;-63
2022/01/18 07:31:00;;;;;;;48.17;10.08;;;;;;;-0.90;81.42;101932.75;2115473;84;33042;-60
2022/01/18 07:34:02;;;;;;;37.73;9.80;;;;;;;-0.79;81.36;101932.56;2115844;84;30094;-62
2022/01/18 07:37:05;;;;;;;44.18;8.58;;;;;;;-0.65;81.33;101925.41;2115462;83;27697;-60
2022/01/18 07:40:08;;;;;;;43.17;11.73;;;;;;;-0.53;81.23;101926.13;2116540;82;29601;-61
2022/01/18 07:43:11;;;;;;;37.40;11.38;;;;;;;-0.42;81.18;101928.59;2114937;84;31874;-64
2022/01/18 07:46:13;;;;;;;50.58;13.20;;;;;;;-0.29;81.03;101943.34;2114880;84;33627;-61
2022/01/18 07:49:15;;;;;;;42.55;12.58;;;;;;;-0.18;80.98;101951.03;2114633;84;30315;-60
2022/01/18 07:52:17;;;;;;;38.45;12.55;;;;;;;-0.07;80.97;101947.31;2142704;82;27730;-67
2022/01/18 07:55:20;;;;;;;36.15;10.63;;;;;;;0.03;80.83;101946.64;2150032;82;29517;-66
2022/01/18 07:58:22;;;;;;;27.80;9.60;;;;;;;0.10;80.66;101951.19;2150928;82;32284;-62
2022/01/18 08:01:24;;;;;;;30.85;10.23;;;;;;;0.18;80.69;101956.62;2151293;82;32846;-64
2022/01/18 08:04:26;;;;;;;32.08;11.10;;;;;;;0.28;80.56;101953.73;2121686;82;29339;-64
2022/01/18 08:07:28;;;;;;;35.48;9.95;;;;;;;0.37;80.51;101962.26;2114886;82;27804;-61
2022/01/18 08:10:32;;;;;;;52.78;13.65;;;;;;;0.48;80.46;101971.70;2121958;82;29015;-61
2022/01/18 08:13:40;;;;;;;42.53;13.70;;;;;;;0.57;80.31;101977.12;2149705;82;28365;-60
2022/01/18 08:16:59;;;;;;;41.23;13.80;;;;;;;0.68;80.25;101989.20;2150890;82;34329;-61
2022/01/18 08:19:52;;;;;;;45.85;15.78;;;;;;;0.77;80.05;101989.81;2148439;82;29142;-62
2022/01/18 08:22:54;;;;;;;40.45;14.18;;;;;;;0.86;80.12;101985.59;2188548;80;27683;-62
2022/01/18 08:25:57;;;;;;;43.45;14.98;;;;;;;0.96;79.90;101989.70;2161980;82;29695;-61
2022/01/18 08:28:59;;;;;;;40.12;12.37;;;;;;;1.03;79.81;101987.64;2140612;82;31723;-60
2022/01/18 08:32:04;;;;;;;45.20;13.28;;;;;;;1.12;79.61;101982.50;2162344;82;33058;-62
2022/01/18 08:35:08;;;;;;;38.67;11.70;;;;;;;1.19;79.38;101996.69;2162046;80;36790;-61
2022/01/18 08:38:10;;;;;;;28.55;10.85;;;;;;;1.24;79.33;102002.94;2125035;82;27798;-61
2022/01/18 08:41:12;;;;;;;34.18;10.68;;;;;;;1.29;79.24;102005.64;2151681;81;29588;-66
2022/01/18 08:44:15;;;;;;;40.85;11.03;;;;;;;1.36;79.24;102010.18;2149613;82;31503;-61
2022/01/18 08:47:18;;;;;;;42.78;12.88;;;;;;;1.43;79.03;102019.95;2149771;82;33170;-63
2022/01/18 08:50:21;;;;;;;37.10;11.45;;;;;;;1.54;79.08;102024.55;2149891;82;29353;-60
2022/01/18 08:53:23;;;;;;;34.40;10.32;;;;;;;1.59;78.78;102031.67;2149611;82;27667;-63
2022/01/18 08:56:25;;;;;;;35.45;12.15;;;;;;;1.70;78.72;102021.69;2149625;82;28835;-65
2022/01/18 08:59:29;;;;;;;35.50;11.57;;;;;;;1.74;78.51;102027.48;2167796;81;32245;-63
2022/01/18 09:02:32;;;;;;;36.95;14.23;;;;;;;1.82;78.30;102018.80;2187078;81;33811;-61
2022/01/18 09:05:36;;;;;;;45.78;13.15;;;;;;;1.86;78.01;102022.81;2187517;81;29968;-66
2022/01/18 09:08:40;;;;;;;42.07;14.40;;;;;;;1.90;78.03;102029.48;2186533;81;27721;-66
2022/01/18 09:11:43;;;;;;;48.40;18.00;;;;;;;1.96;78.07;102036.19;2185599;81;29079;-60
2022/01/18 09:14:45;;;;;;;47.00;17.92;;;;;;;2.04;78.01;102040.67;2177727;81;31044;-66
2022/01/18 09:17:47;;;;;;;35.98;11.75;;;;;;;2.10;77.85;102037.68;2167334;81;34180;-64
2022/01/18 09:20:49;;;;;;;36.00;13.05;;;;;;;2.12;77.54;102042.56;2185765;81;30413;-59
2022/01/18 09:23:52;;;;;;;42.62;16.62;;;;;;;2.20;77.66;102062.94;2201240;79;27571;-59
2022/01/18 09:26:54;;;;;;;28.20;11.25;;;;;;;2.26;77.53;102068.29;2226890;79;30062;-60
2022/01/18 09:29:55;;;;;;;30.57;9.73;;;;;;;2.27;77.20;102082.88;2227315;79;31211;-59
2022/01/18 09:33:05;;;;;;;34.90;10.88;;;;;;;2.29;76.94;102082.88;2227463;79;33499;-58
2022/01/18 09:36:02;;;;;;;29.20;7.72;;;;;;;2.26;76.88;102072.26;2226549;79;29335;-59
2022/01/18 09:39:05;;;;;;;31.60;11.38;;;;;;;2.21;76.88;102070.01;2197052;79;27745;-59
2022/01/18 09:42:08;;;;;;;26.90;10.63;;;;;;;2.20;76.92;102066.91;2141036;83;29821;-59
2022/01/18 09:45:15;;;;;;;30.88;9.80;;;;;;;2.22;76.90;102091.17;2115304;84;31884;-63
2022/01/18 09:48:17;;;;;;;27.40;9.45;;;;;;;2.30;76.86;102080.70;2136563;82;32994;-61
2022/01/18 09:51:19;;;;;;;33.83;9.80;;;;;;;2.40;76.93;102081.71;2161397;82;30499;-64
2022/01/18 09:54:21;;;;;;;33.70;12.20;;;;;;;2.50;76.93;102084.91;2171327;82;27688;-64
2022/01/18 09:57:23;;;;;;;32.03;10.15;;;;;;;2.62;76.65;102076.70;2171384;81;29917;-62
2022/01/18 10:00:29;;;;;;;32.78;10.20;;;;;;;2.67;76.25;102082.91;2171056;81;31990;-62
2022/01/18 10:03:35;;;;;;;31.52;11.95;;;;;;;2.79;76.56;102094.99;2171304;81;33756;-60
2022/01/18 10:06:37;;;;;;;34.15;10.20;;;;;;;2.87;76.40;102100.38;2171525;82;29322;-64
2022/01/18 10:09:39;;;;;;;29.90;10.70;;;;;;;2.95;76.35;102095.16;2162853;82;27667;-65
2022/01/18 10:12:41;;;;;;;26.37;10.60;;;;;;;3.03;76.10;102090.83;2134371;83;29080;-62
2022/01/18 10:16:10;;;;;;;28.20;10.35;;;;;;;3.14;75.81;102087.87;2134712;83;31376;-65
2022/01/18 10:19:13;;;;;;;38.85;11.70;;;;;;;3.18;75.71;102096.28;2134686;83;34102;-65
2022/01/18 10:22:23;;;;;;;31.70;10.63;;;;;;;3.17;75.39;102107.74;2134600;83;30137;-60
2022/01/18 10:25:26;;;;;;;36.28;9.83;;;;;;;3.16;75.38;102111.27;2134498;83;27708;-61
2022/01/18 10:28:34;;;;;;;37.33;10.25;;;;;;;3.23;75.13;102110.88;2134902;83;29012;-60
2022/01/18 10:31:55;;;;;;;26.90;9.30;;;;;;;3.32;75.45;102113.64;2134231;83;31071;-60
2022/01/18 10:37:54;;;;;;;36.70;15.00;;;;;;;3.48;75.36;102110.69;2134524;82;29408;-60
2022/01/18 10:41:00;;;;;;;57.75;20.55;;;;;;;3.60;75.22;102111.23;2135724;82;27713;-61
2022/01/18 10:44:10;;;;;;;35.95;13.43;;;;;;;3.66;74.53;102113.05;2108221;83;28694;-60
2022/01/18 10:47:13;;;;;;;87.88;28.80;;;;;;;3.65;74.44;102116.16;2148710;82;31042;-62
2022/01/18 10:50:17;;;;;;;89.83;28.55;;;;;;;3.71;74.40;102107.36;2170508;82;32971;-60
2022/01/18 10:53:25;;;;;;;108.87;31.03;;;;;;;3.76;74.45;102110.94;2171169;82;29952;-61
2022/01/18 10:56:40;;;;;;;63.83;20.32;;;;;;;3.82;74.07;102117.15;2170923;82;28212;-59
2022/01/18 10:59:43;;;;;;;37.20;12.17;;;;;;;3.85;74.15;102121.16;2170981;82;28696;-61
2022/01/18 11:02:53;;;;;;;93.40;27.93;;;;;;;3.90;73.81;102122.96;2171015;82;30547;-61
2022/01/18 11:05:56;;;;;;;67.95;19.12;;;;;;;4.00;73.54;102121.72;2150900;82;34209;-60
2022/01/18 11:09:12;;;;;;;54.05;15.88;;;;;;;4.04;73.37;102123.52;2133427;82;30520;-61
2022/01/18 11:12:15;;;;;;;46.63;14.65;;;;;;;4.10;73.28;102110.28;2133781;83;27677;-61
2022/01/18 11:15:21;;;;;;;54.80;18.23;;;;;;;4.15;73.12;102120.50;2149518;82;29481;-61
2022/01/18 11:18:36;;;;;;;43.08;15.68;;;;;;;4.19;72.81;102120.97;2169890;81;32428;-61
2022/01/18 11:21:35;;;;;;;56.75;17.70;;;;;;;4.20;72.49;102125.41;2147323;82;32977;-61
2022/01/18 11:24:42;;;;;;;57.35;18.23;;;;;;;4.12;72.34;102122.25;2170193;82;29707;-61
2022/01/18 11:27:49;;;;;;;52.65;18.27;;;;;;;4.07;72.36;102121.77;2170624;82;27705;-62
2022/01/18 11:30:49;;;;;;;71.82;25.48;;;;;;;4.03;72.43;102117.31;2146805;82;28707;-63
2022/01/18 11:33:57;;;;;;;37.23;12.58;;;;;;;3.94;72.23;102112.83;2170818;82;31592;-61
2022/01/18 11:37:11;;;;;;;40.40;12.18;;;;;;;3.84;72.16;102106.12;2195780;80;33821;-61
2022/01/18 11:40:16;;;;;;;44.60;16.27;;;;;;;3.73;71.74;102112.66;2197906;80;29900;-61
2022/01/18 11:43:43;;;;;;;;;;;;;;;3.71;72.03;102115.77;2201384;81;28317;-61
2022/01/18 11:46:52;;;;;;;41.70;16.02;;;;;;;3.74;71.93;102113.11;2188797;81;28594;-63
2022/01/18 11:49:57;;;;;;;33.50;13.18;;;;;;;3.73;71.91;102116.22;2159932;82;32750;-61
2022/01/18 11:53:26;;;;;;;42.00;15.23;;;;;;;3.70;71.87;102116.64;2160032;81;33066;-62
2022/01/18 11:56:42;;;;;;;37.35;15.08;;;;;;;3.65;71.72;102128.08;2141437;81;30330;-62
2022/01/18 11:59:44;;;;;;;37.48;14.40;;;;;;;3.67;71.93;102129.86;2141873;81;28252;-61
2022/01/18 12:02:48;;;;;;;31.90;12.10;;;;;;;3.68;71.82;102125.88;2141229;83;28765;-61
2022/01/18 12:05:54;;;;;;;41.67;15.83;;;;;;;3.64;71.77;102115.70;2143896;81;31030;-63
2022/01/18 12:08:55;;;;;;;;;;;;;;;3.61;71.45;102121.42;2180851;81;33551;-61
2022/01/18 12:11:59;;;;;;;48.95;17.67;;;;;;;3.56;71.45;102132.41;2177560;81;27677;-61
2022/01/18 12:15:01;;;;;;;43.45;15.88;;;;;;;3.44;71.25;102115.95;2179099;81;27691;-61
2022/01/18 12:18:21;;;;;;;32.55;12.78;;;;;;;3.31;70.86;102105.24;2178687;81;29939;-60
2022/01/18 12:21:27;;;;;;;32.30;12.80;;;;;;;3.16;71.21;102111.27;2178537;81;31906;-61
2022/01/18 12:24:28;;;;;;;41.00;14.23;;;;;;;3.02;71.16;102119.08;2178872;81;32379;-60
2022/01/18 12:27:32;;;;;;;31.62;12.05;;;;;;;2.88;71.32;102114.94;2178976;81;29686;-60
2022/01/18 12:30:54;;;;;;;38.08;14.15;;;;;;;2.82;71.54;102108.23;2178595;81;27681;-62
2022/01/18 12:33:45;;;;;;;37.83;13.72;;;;;;;2.82;71.80;102108.69;2173252;81;29173;-61
2022/01/18 12:36:47;;;;;;;33.98;11.75;;;;;;;2.85;71.80;102114.89;2178256;81;31948;-60
2022/01/18 12:40:05;;;;;;;28.95;11.18;;;;;;;2.94;72.02;102114.12;2180968;81;34306;-63
2022/01/18 12:46:16;;;;;;;37.65;11.80;;;;;;;3.01;71.93;102112.00;2185672;81;27626;-61
2022/01/18 12:49:20;;;;;;;35.30;13.65;;;;;;;3.09;72.13;102117.38;2185537;81;28747;-60
2022/01/18 12:52:22;;;;;;;36.38;15.25;;;;;;;3.16;72.02;102123.18;2185255;81;31025;-61
2022/01/18 12:55:46;;;;;;;33.65;11.08;;;;;;;3.19;71.90;102129.84;2185106;81;33984;-59
2022/01/18 12:58:48;;;;;;;29.13;11.20;;;;;;;3.23;71.62;102129.42;2185175;81;30161;-62
2022/01/18 13:01:56;;;;;;;32.15;10.53;;;;;;;3.26;71.46;102123.30;2183096;81;27722;-61
2022/01/18 13:05:06;;;;;;;28.65;9.10;;;;;;;3.26;71.32;102119.32;2184215;81;28898;-61
2022/01/18 13:08:10;;;;;;;36.85;9.78;;;;;;;3.23;71.20;102122.80;2185053;81;31099;-61
2022/01/18 13:11:17;;;;;;;28.93;7.33;;;;;;;3.18;71.22;102132.03;2185440;81;33761;-60
2022/01/18 13:14:25;;;;;;;26.17;10.75;;;;;;;3.16;71.14;102124.50;2183896;81;28802;-60
2022/01/18 13:27:45;;;;;;;30.97;10.03;;;;;;;2.79;71.04;102136.44;2152944;81;34263;-59
2022/01/18 13:30:42;;;;;;;37.60;11.28;;;;;;;2.68;70.98;102148.20;2165939;81;30700;-59
2022/01/18 13:33:57;;;;;;;34.83;11.75;;;;;;;2.58;71.18;102144.55;2184835;81;27734;-58
2022/01/18 13:37:02;;;;;;;29.00;10.18;;;;;;;2.51;71.27;102141.38;2158461;82;28834;-59
2022/01/18 13:40:14;;;;;;;32.27;10.13;;;;;;;2.45;71.38;102134.66;2219132;79;32085;-59
2022/01/18 13:43:16;;;;;;;36.00;12.63;;;;;;;2.38;71.45;102149.15;2227599;79;33055;-59
2022/01/18 13:46:25;;;;;;;33.40;9.90;;;;;;;2.33;71.53;102149.50;2228047;79;29356;-61
2022/01/18 13:49:28;;;;;;;36.15;14.03;;;;;;;2.30;71.62;102157.39;2227172;79;28283;-61
2022/01/18 13:52:31;;;;;;;41.18;10.80;;;;;;;2.27;71.80;102153.38;2227422;79;29602;-60
2022/01/18 13:55:36;;;;;;;27.85;8.38;;;;;;;2.26;71.89;102148.95;2227592;79;31176;-59
2022/01/18 13:58:44;;;;;;;31.68;8.75;;;;;;;2.23;71.73;102147.16;2227020;79;30531;-59
2022/01/18 14:01:46;;;;;;;24.43;9.40;;;;;;;2.22;71.70;102152.44;2217996;79;29301;-59
2022/01/18 14:05:07;;;;;;;30.30;7.65;;;;;;;2.18;71.63;102158.09;2188585;81;28102;-59
2022/01/18 14:08:11;;;;;;;21.82;9.05;;;;;;;2.12;71.69;102158.89;2156696;82;29056;-59
2022/01/18 14:11:19;;;;;;;35.23;9.93;;;;;;;2.09;71.77;102165.89;2118009;84;32173;-60
2022/01/18 14:14:29;;;;;;;23.00;8.33;;;;;;;2.03;71.70;102159.17;2113548;84;33735;-59
2022/01/18 14:17:31;;;;;;;29.35;8.93;;;;;;;1.96;71.88;102160.83;2151796;82;30292;-60
2022/01/18 14:20:35;;;;;;;31.25;11.08;;;;;;;1.92;71.90;102161.22;2152292;82;27679;-60
2022/01/18 14:23:37;;;;;;;29.90;11.50;;;;;;;1.86;71.87;102167.72;2152034;82;29556;-59
2022/01/18 14:26:53;;;;;;;33.70;9.88;;;;;;;1.81;71.95;102162.36;2197139;79;31679;-58
2022/01/18 14:29:59;;;;;;;29.60;10.25;;;;;;;1.76;72.00;102161.38;2227128;79;28693;-60
2022/01/18 14:33:08;;;;;;;32.65;9.68;;;;;;;1.69;72.06;102167.45;2219230;79;30430;-59
2022/01/18 14:36:15;;;;;;;31.60;9.63;;;;;;;1.63;72.13;102162.95;2199825;79;27674;-60
2022/01/18 14:39:17;;;;;;;36.63;8.73;;;;;;;1.55;72.19;102161.91;2185957;81;29459;-59
2022/01/18 14:42:19;;;;;;;31.55;10.00;;;;;;;1.50;72.30;102164.47;2172558;81;32412;-59
2022/01/18 14:48:35;;;;;;;33.92;10.78;;;;;;;1.35;72.47;102180.91;2184596;81;29368;-60
2022/01/18 14:51:38;;;;;;;36.70;9.70;;;;;;;1.30;72.52;102188.28;2188912;81;27736;-59
2022/01/18 14:54:40;;;;;;;27.67;9.30;;;;;;;1.19;72.53;102183.70;2188491;81;28879;-59
2022/01/18 14:57:44;;;;;;;34.35;8.83;;;;;;;1.11;72.62;102184.41;2188645;81;31127;-58
2022/01/18 15:00:47;;;;;;;33.67;10.63;;;;;;;1.01;72.70;102178.92;2187617;81;32986;-59
2022/01/18 15:03:49;;;;;;;27.37;10.48;;;;;;;0.96;72.84;102179.28;2151113;82;29508;-59
2022/01/18 15:06:52;;;;;;;30.25;10.75;;;;;;;0.89;72.89;102191.45;2150753;82;27725;-60
2022/01/18 15:09:55;;;;;;;36.08;12.43;;;;;;;0.82;72.96;102193.48;2150662;82;29876;-59
2022/01/18 15:12:57;;;;;;;34.10;14.07;;;;;;;0.74;73.06;102193.33;2150755;82;32231;-59
2022/01/18 15:16:01;;;;;;;40.90;16.97;;;;;;;0.69;73.17;102196.73;2176568;81;30297;-60
2022/01/18 15:19:05;;;;;;;43.02;17.15;;;;;;;0.64;73.30;102187.40;2187526;81;30500;-60
2022/01/18 15:22:13;;;;;;;50.38;19.15;;;;;;;0.57;73.35;102185.06;2188792;80;27605;-59
2022/01/18 15:25:15;;;;;;;47.08;20.60;;;;;;;0.50;73.40;102193.67;2188691;81;28655;-59
2022/01/18 15:28:17;;;;;;;51.77;19.02;;;;;;;0.41;73.47;102202.27;2188704;81;30869;-60
2022/01/18 15:31:19;;;;;;;57.10;16.67;;;;;;;0.36;73.56;102199.94;2180614;81;33038;-59